Time;durP1;ratioP1;P1;durP2;ratioP2;P2;SDS_P1;SDS_P2;PMS_P1;PMS_P2;Temp;Humidity;BMP_temperature;BMP_pressure;BME280_temperature;BME280_humidity;BME280_pressure;Samples;Min_cycle;Max_cycle;Signal;HPM_P1;HPM_P2
2022/01/15 00:00:39;;;;;;;6.95;3.17;;;19.30;62.40;;;;;;10589083;28;20055;-67
2022/01/15 00:05:47;;;;;;;;;;;19.30;62.40;;;;;;10587907;28;20048;-66
2022/01/15 00:10:55;;;;;;;7.75;3.38;;;19.30;62.40;;;;;;10616173;27;19926;-67
2022/01/15 00:16:11;;;;;;;6.53;2.97;;;19.30;62.50;;;;;;10626950;27;20136;-67
2022/01/15 00:21:28;;;;;;;16.15;3.42;;;19.30;62.70;;;;;;10626906;27;20051;-67
2022/01/15 00:26:41;;;;;;;8.90;3.00;;;19.20;62.90;;;;;;10629691;27;20036;-67
2022/01/15 00:31:49;;;;;;;7.15;3.63;;;19.30;63.10;;;;;;10612318;27;20043;-67
2022/01/15 00:36:55;;;;;;;7.85;3.58;;;19.30;63.20;;;;;;10629070;27;20507;-67
2022/01/15 00:42:03;;;;;;;11.52;3.33;;;19.30;63.30;;;;;;10611227;27;20043;-68
2022/01/15 00:47:14;;;;;;;8.70;3.60;;;19.30;63.40;;;;;;10630749;27;20047;-68
2022/01/15 00:52:19;;;;;;;8.00;2.78;;;19.30;63.50;;;;;;10628292;27;20043;-67
2022/01/15 00:57:28;;;;;;;7.38;3.00;;;19.30;63.50;;;;;;10628583;27;20069;-66
2022/01/15 01:02:39;;;;;;;8.10;3.13;;;19.30;63.60;;;;;;10621062;27;20051;-67
2022/01/15 01:07:51;;;;;;;7.47;3.10;;;19.30;63.60;;;;;;10568975;28;20040;-67
2022/01/15 01:37:41;;;;;;;7.80;2.95;;;19.30;63.80;;;;;;10396902;28;20139;-66
2022/01/15 01:43:01;;;;;;;10.23;2.85;;;19.30;63.90;;;;;;10412734;28;20095;-67
2022/01/15 01:48:12;;;;;;;8.82;2.97;;;19.30;63.90;;;;;;10412390;28;20046;-67
2022/01/15 01:53:28;;;;;;;7.22;2.50;;;19.20;63.80;;;;;;10412346;28;20103;-68
2022/01/15 01:58:34;;;;;;;15.57;2.88;;;19.20;63.80;;;;;;10423835;28;20056;-67
2022/01/15 02:03:45;;;;;;;4.90;2.80;;;19.20;63.90;;;;;;10554916;28;20047;-65
2022/01/15 02:08:54;;;;;;;5.45;2.67;;;19.20;63.90;;;;;;10583221;28;20066;-67
2022/01/15 02:13:59;;;;;;;10.63;3.17;;;19.20;63.90;;;;;;10581008;28;20043;-66
2022/01/15 02:19:16;;;;;;;7.97;2.72;;;19.20;63.90;;;;;;10547664;28;20047;-65
2022/01/15 02:24:24;;;;;;;5.57;2.63;;;19.20;64.00;;;;;;10582079;28;20051;-65
2022/01/15 02:29:37;;;;;;;4.25;2.33;;;19.10;64.00;;;;;;10564557;28;20087;-68
2022/01/15 02:34:57;;;;;;;6.95;3.13;;;19.10;64.00;;;;;;10581841;28;20128;-67
2022/01/15 02:40:02;;;;;;;9.35;3.10;;;19.10;64.10;;;;;;10559751;28;20063;-68
2022/01/15 02:45:20;;;;;;;;;;;19.10;64.10;;;;;;10540526;28;20480;-69
2022/01/15 02:50:31;;;;;;;6.95;2.70;;;19.10;64.10;;;;;;10539260;28;19924;-68
2022/01/15 02:56:06;;;;;;;9.63;2.40;;;19.10;64.30;;;;;;10510322;28;20105;-67
2022/01/15 03:01:23;;;;;;;6.95;1.80;;;19.10;64.30;;;;;;10539130;28;20052;-68
2022/01/15 03:06:35;;;;;;;8.18;2.50;;;19.10;64.30;;;;;;10536675;28;20044;-67
2022/01/15 03:11:42;;;;;;;7.05;2.25;;;19.10;64.30;;;;;;10538591;28;20047;-66
2022/01/15 03:16:58;;;;;;;9.75;1.90;;;19.10;64.40;;;;;;10522102;28;20036;-67
2022/01/15 03:22:17;;;;;;;6.47;1.98;;;19.10;64.40;;;;;;10536201;28;20554;-66
2022/01/15 03:27:24;;;;;;;9.90;2.60;;;19.00;64.30;;;;;;10546666;28;20102;-67
2022/01/15 03:32:29;;;;;;;8.43;2.00;;;19.00;64.40;;;;;;10546583;28;20048;-66
2022/01/15 03:37:36;;;;;;;6.03;2.08;;;19.00;64.40;;;;;;10624832;27;20384;-66
2022/01/15 03:42:45;;;;;;;5.55;2.40;;;19.00;64.40;;;;;;10630992;27;20047;-66
2022/01/15 03:47:53;;;;;;;8.48;2.30;;;18.90;64.30;;;;;;10630878;27;20412;-66
2022/01/15 03:52:58;;;;;;;5.40;2.10;;;19.00;64.50;;;;;;10630697;27;20047;-66
2022/01/15 03:58:06;;;;;;;3.38;1.73;;;18.90;64.40;;;;;;10626913;27;20115;-66
2022/01/15 04:03:11;;;;;;;6.85;2.47;;;18.90;64.40;;;;;;10630113;27;20088;-66
2022/01/15 04:08:22;;;;;;;9.10;2.20;;;18.90;64.40;;;;;;10612729;27;20540;-66
2022/01/15 04:13:33;;;;;;;9.00;2.33;;;18.90;64.40;;;;;;10629820;27;20427;-66
2022/01/15 04:18:47;;;;;;;6.10;2.20;;;18.90;64.20;;;;;;10629664;27;20096;-66
2022/01/15 04:23:58;;;;;;;2.95;1.67;;;19.00;64.10;;;;;;10611633;27;20076;-66
2022/01/15 04:29:07;;;;;;;8.73;2.28;;;19.10;64.00;;;;;;10611846;27;20047;-66
2022/01/15 04:34:26;;;;;;;8.80;1.90;;;19.20;63.90;;;;;;10627599;27;20492;-66
2022/01/15 04:39:31;;;;;;;2.72;1.80;;;19.40;63.80;;;;;;10629420;27;20040;-66
2022/01/15 04:44:37;;;;;;;5.13;2.22;;;19.50;63.60;;;;;;10629368;27;20092;-66
2022/01/15 04:49:45;;;;;;;6.25;2.00;;;19.60;63.50;;;;;;10622268;27;20076;-66
2022/01/15 04:54:55;;;;;;;6.10;1.58;;;19.70;63.40;;;;;;10586266;28;20053;-66
2022/01/15 05:00:03;;;;;;;4.60;1.73;;;19.80;63.40;;;;;;10585590;28;20048;-65
2022/01/15 05:05:14;;;;;;;2.97;1.63;;;19.90;63.40;;;;;;10585897;28;20400;-65
2022/01/15 05:10:23;;;;;;;7.10;2.08;;;20.00;63.20;;;;;;10569351;28;20404;-65
2022/01/15 05:15:28;;;;;;;5.07;1.92;;;20.10;63.10;;;;;;10542259;28;20044;-65
2022/01/15 05:20:33;;;;;;;5.35;1.77;;;20.10;63.00;;;;;;10542487;28;20056;-65
2022/01/15 05:25:38;;;;;;;8.77;1.85;;;20.20;63.10;;;;;;10542111;28;20056;-65
2022/01/15 05:30:44;;;;;;;4.53;1.90;;;20.30;62.90;;;;;;10542775;28;20439;-65
2022/01/15 05:35:52;;;;;;;6.03;1.45;;;20.40;62.80;;;;;;10569628;28;20108;-65
2022/01/15 05:40:56;;;;;;;3.38;1.52;;;20.40;62.70;;;;;;10583698;28;20051;-65
2022/01/15 05:46:01;;;;;;;4.68;1.52;;;20.50;62.60;;;;;;10583943;28;20058;-66
2022/01/15 05:51:07;;;;;;;3.15;1.63;;;20.50;62.50;;;;;;10603691;27;20449;-66
2022/01/15 05:56:12;;;;;;;3.47;1.35;;;20.60;62.50;;;;;;10626488;27;20380;-66
2022/01/15 06:01:17;;;;;;;8.65;1.70;;;20.60;62.50;;;;;;10626075;27;20064;-66
2022/01/15 06:06:22;;;;;;;3.35;1.40;;;20.70;62.50;;;;;;10626499;27;20054;-66
2022/01/15 06:11:27;;;;;;;3.47;1.15;;;20.80;62.50;;;;;;10626620;27;20072;-66
2022/01/15 06:16:33;;;;;;;4.72;1.60;;;20.80;62.50;;;;;;10624804;27;20043;-66
2022/01/15 06:21:38;;;;;;;3.38;1.50;;;20.80;62.50;;;;;;10624668;27;20051;-66
2022/01/15 06:26:43;;;;;;;6.55;1.63;;;20.80;62.50;;;;;;10626115;27;20043;-66
2022/01/15 06:31:48;;;;;;;13.02;1.70;;;20.80;62.50;;;;;;10625045;27;20095;-66
2022/01/15 06:36:53;;;;;;;4.38;1.35;;;20.80;62.50;;;;;;10624272;27;20051;-68
2022/01/15 06:41:58;;;;;;;6.55;1.77;;;20.80;62.50;;;;;;10624775;27;20103;-66
2022/01/15 06:47:03;;;;;;;3.30;1.50;;;20.70;62.50;;;;;;10623870;27;20068;-67
2022/01/15 06:52:08;;;;;;;5.05;1.98;;;20.70;62.60;;;;;;10596455;27;20052;-66
2022/01/15 06:57:13;;;;;;;6.28;1.90;;;20.70;62.60;;;;;;10581196;28;20069;-66
2022/01/15 07:02:18;;;;;;;5.80;2.03;;;20.70;62.70;;;;;;10581766;28;20104;-67
2022/01/15 07:07:23;;;;;;;4.60;2.03;;;20.70;62.70;;;;;;10581839;28;20476;-67
2022/01/15 07:12:28;;;;;;;5.35;2.03;;;20.60;62.70;;;;;;10581467;28;20044;-67
2022/01/15 07:17:33;;;;;;;2.55;1.77;;;20.60;62.80;;;;;;10581429;28;20047;-66
2022/01/15 07:22:39;;;;;;;20.85;2.50;;;20.50;62.90;;;;;;10581309;28;20100;-66
2022/01/15 07:27:44;;;;;;;10.50;1.95;;;20.50;62.90;;;;;;10581327;28;20549;-66
2022/01/15 07:32:49;;;;;;;10.60;2.40;;;20.50;63.10;;;;;;10581195;28;20455;-66
2022/01/15 07:37:54;;;;;;;8.52;3.00;;;20.50;63.10;;;;;;10581144;28;20039;-65
2022/01/15 07:43:00;;;;;;;9.88;2.80;;;20.40;63.10;;;;;;10581127;28;20399;-67
2022/01/15 07:48:05;;;;;;;16.20;2.65;;;20.40;63.10;;;;;;10580916;28;20488;-66
2022/01/15 07:53:10;;;;;;;18.38;3.00;;;20.30;63.10;;;;;;10581039;28;20039;-67
2022/01/15 07:58:15;;;;;;;12.75;2.70;;;20.30;63.10;;;;;;10581040;28;20044;-66
2022/01/15 08:03:20;;;;;;;7.97;2.97;;;20.30;63.20;;;;;;10580651;28;20104;-65
2022/01/15 08:08:25;;;;;;;6.53;3.20;;;20.30;63.20;;;;;;10583551;28;20080;-66
2022/01/15 08:13:33;;;;;;;12.23;3.53;;;20.20;63.20;;;;;;10587955;28;20040;-68
2022/01/15 08:18:38;;;;;;;14.18;3.78;;;20.20;63.30;;;;;;10587818;28;20043;-67
2022/01/15 08:23:43;;;;;;;5.95;3.08;;;20.20;63.30;;;;;;10570383;28;20039;-66
2022/01/15 08:28:49;;;;;;;9.45;3.10;;;20.20;63.30;;;;;;10601773;28;20036;-66
2022/01/15 08:33:55;;;;;;;7.57;3.50;;;20.30;63.40;;;;;;10597100;27;20499;-66
2022/01/15 08:39:08;;;;;;;9.18;2.88;;;20.40;63.40;;;;;;10612347;27;20047;-65
2022/01/15 08:44:13;;;;;;;6.20;2.58;;;20.40;63.30;;;;;;10629328;27;20039;-66
2022/01/15 08:49:19;;;;;;;10.35;2.75;;;20.50;63.20;;;;;;10625763;27;20097;-65
2022/01/15 08:54:24;;;;;;;5.43;2.83;;;20.60;63.10;;;;;;10586412;28;20043;-65
2022/01/15 08:59:30;;;;;;;8.48;3.35;;;20.70;63.00;;;;;;10568824;28;20545;-65
2022/01/15 09:04:35;;;;;;;7.50;3.55;;;20.70;63.00;;;;;;10585568;28;20047;-66
2022/01/15 09:09:45;;;;;;;9.82;2.70;;;20.80;62.90;;;;;;10585695;28;20442;-66
2022/01/15 09:14:59;;;;;;;18.67;3.13;;;20.90;63.00;;;;;;10585391;28;20381;-65
2022/01/15 09:20:14;;;;;;;8.23;2.80;;;20.90;62.90;;;;;;10474019;28;20049;-69
2022/01/15 09:25:22;;;;;;;11.70;3.25;;;21.00;62.80;;;;;;10473906;28;20565;-67
2022/01/15 09:30:33;;;;;;;8.00;3.00;;;21.10;62.70;;;;;;10470798;28;20500;-65
2022/01/15 09:35:38;;;;;;;15.23;3.60;;;21.20;62.80;;;;;;10510246;28;20075;-68
2022/01/15 09:41:06;;;;;;;14.07;3.10;;;21.10;62.70;;;;;;10533927;28;20040;-67
2022/01/15 09:46:18;;;;;;;13.48;3.70;;;21.30;62.70;;;;;;10520271;28;20466;-68
2022/01/15 09:51:42;;;;;;;7.28;2.83;;;21.30;62.60;;;;;;10559946;28;20056;-68
2022/01/15 09:57:19;;;;;;;16.30;3.20;;;21.30;62.70;;;;;;10564314;28;20052;-60
2022/01/15 10:02:38;;;;;;;15.50;2.97;;;21.30;62.70;;;;;;10564326;28;20110;-66
2022/01/15 10:08:14;;;;;;;10.10;2.17;;;21.40;63.50;;;;;;10582848;28;20056;-68
2022/01/15 10:13:45;;;;;;;5.72;1.90;;;21.40;63.00;;;;;;10565047;28;20480;-68
2022/01/15 10:19:39;;;;;;;2.88;1.60;;;21.40;63.00;;;;;;10582521;28;20420;-68
2022/01/15 10:25:11;;;;;;;9.20;2.10;;;21.40;62.90;;;;;;10564190;28;20044;-69
2022/01/15 10:30:30;;;;;;;3.50;1.77;;;21.50;62.90;;;;;;10582095;28;20050;-66
2022/01/15 10:35:50;;;;;;;8.18;1.40;;;21.50;62.90;;;;;;10615749;27;20047;-64
2022/01/15 10:40:57;;;;;;;2.17;1.52;;;21.50;63.10;;;;;;10623206;27;20124;-64
2022/01/15 10:46:02;;;;;;;8.80;1.60;;;21.50;63.20;;;;;;10621273;27;20552;-65
2022/01/15 10:51:11;;;;;;;;;;;21.40;63.10;;;;;;10586552;27;20088;-64
2022/01/15 10:56:18;;;;;;;9.85;1.60;;;21.50;63.20;;;;;;10620153;27;19920;-59
2022/01/15 11:01:27;;;;;;;7.28;2.20;;;21.40;63.40;;;;;;10620510;28;20092;-64
2022/01/15 11:06:39;;;;;;;7.85;2.20;;;21.30;63.30;;;;;;10605861;28;20042;-67
2022/01/15 11:12:00;;;;;;;11.18;2.20;;;21.30;63.30;;;;;;10624058;28;20484;-68
2022/01/15 11:17:06;;;;;;;10.25;2.08;;;21.40;63.30;;;;;;10625048;28;20088;-66
2022/01/15 11:22:11;;;;;;;7.28;1.50;;;21.40;63.20;;;;;;10617339;28;20076;-68
2022/01/15 11:27:16;;;;;;;7.63;1.98;;;21.40;63.30;;;;;;10615167;28;20051;-66
2022/01/15 11:32:26;;;;;;;3.45;1.50;;;21.30;63.40;;;;;;10596562;28;20039;-68
2022/01/15 11:37:56;;;;;;;11.85;1.98;;;21.30;63.50;;;;;;10622387;28;20563;-67
2022/01/15 11:43:40;;;;;;;3.60;1.80;;;21.30;63.40;;;;;;10605366;27;20035;-67
2022/01/15 11:48:45;;;;;;;9.77;3.05;;;21.30;63.30;;;;;;10631674;27;20411;-67
2022/01/15 11:54:00;;;;;;;9.60;2.70;;;21.30;63.20;;;;;;10630699;27;20047;-68
2022/01/15 11:59:31;;;;;;;6.50;2.33;;;21.40;63.00;;;;;;10630130;27;20445;-69
2022/01/15 12:04:40;;;;;;;4.32;1.98;;;21.50;62.80;;;;;;10600845;27;20054;-67
2022/01/15 12:09:49;;;;;;;3.42;1.80;;;21.60;62.90;;;;;;10631245;27;20036;-67
2022/01/15 12:15:01;;;;;;;3.13;1.92;;;21.60;62.70;;;;;;10630554;27;20088;-69
2022/01/15 12:20:28;;;;;;;4.07;1.90;;;21.60;62.70;;;;;;10594128;27;20044;-69
2022/01/15 12:25:36;;;;;;;4.10;2.00;;;21.50;62.80;;;;;;10587361;28;20047;-68
2022/01/15 12:30:46;;;;;;;2.50;1.70;;;21.60;62.80;;;;;;10586986;28;20043;-66
2022/01/15 12:35:55;;;;;;;3.38;1.73;;;21.50;62.90;;;;;;10591316;27;20136;-64
2022/01/15 12:41:04;;;;;;;7.90;2.80;;;21.50;62.90;;;;;;10622827;27;20100;-66
2022/01/15 12:46:16;;;;;;;6.28;2.33;;;21.50;62.90;;;;;;10618677;27;20442;-64
2022/01/15 12:51:22;;;;;;;7.28;2.30;;;21.50;62.70;;;;;;10629036;27;20039;-65
2022/01/15 12:56:29;;;;;;;4.27;2.30;;;21.50;62.70;;;;;;10627269;27;20043;-66
2022/01/15 13:01:39;;;;;;;4.93;2.10;;;21.60;62.80;;;;;;10628655;27;20407;-65
2022/01/15 13:06:49;;;;;;;10.13;2.75;;;21.50;62.90;;;;;;10609705;27;20051;-64
2022/01/15 13:11:59;;;;;;;4.28;2.15;;;21.60;63.10;;;;;;10628398;27;20043;-66
2022/01/15 13:17:04;;;;;;;4.22;1.67;;;21.60;63.20;;;;;;10628068;27;20043;-65
2022/01/15 13:22:09;;;;;;;6.10;2.17;;;21.70;63.20;;;;;;10628439;27;20058;-64
2022/01/15 13:27:20;;;;;;;4.03;2.08;;;21.70;63.10;;;;;;10627626;27;20084;-68
2022/01/15 13:32:25;;;;;;;5.55;2.63;;;21.80;63.10;;;;;;10627377;27;20043;-68
2022/01/15 13:37:30;;;;;;;5.30;2.75;;;21.80;63.10;;;;;;10585149;27;20112;-67
2022/01/15 13:42:36;;;;;;;4.68;2.65;;;21.80;63.20;;;;;;10584402;28;20545;-65
2022/01/15 13:47:41;;;;;;;6.13;2.60;;;22.00;63.20;;;;;;10584235;28;20096;-67
2022/01/15 13:53:04;;;;;;;5.05;2.88;;;22.10;63.10;;;;;;10583423;28;20105;-64
2022/01/15 13:58:12;;;;;;;13.57;4.90;;;22.10;63.10;;;;;;10580352;28;20047;-63
2022/01/15 14:03:17;;;;;;;17.30;5.53;;;22.00;62.80;;;;;;10583332;28;20065;-63
2022/01/15 14:08:24;;;;;;;15.20;5.50;;;21.70;62.90;;;;;;10583210;28;20035;-63
2022/01/15 14:13:29;;;;;;;;;;;21.60;62.90;;;;;;10583710;28;20036;-63
2022/01/15 14:18:46;;;;;;;16.77;5.03;;;21.50;62.90;;;;;;10582976;28;19920;-63
2022/01/15 14:23:57;;;;;;;10.88;5.07;;;21.50;63.00;;;;;;10583357;28;20476;-63
2022/01/15 14:29:02;;;;;;;10.25;4.47;;;21.40;63.10;;;;;;10582260;28;20051;-61
2022/01/15 14:34:21;;;;;;;8.88;4.40;;;21.30;63.20;;;;;;10578509;27;20047;-68
2022/01/15 14:39:33;;;;;;;8.38;3.90;;;21.30;63.30;;;;;;10606880;27;20035;-68
2022/01/15 14:44:57;;;;;;;6.40;3.90;;;21.20;63.60;;;;;;10606697;27;20055;-68
2022/01/15 14:50:05;;;;;;;5.47;3.00;;;21.20;63.90;;;;;;10606719;27;20039;-68
2022/01/15 14:55:30;;;;;;;20.55;2.75;;;21.30;64.20;;;;;;10622940;27;20051;-65
2022/01/15 15:00:47;;;;;;;3.85;2.00;;;21.20;64.30;;;;;;10605971;28;20051;-68
2022/01/15 15:06:03;;;;;;;5.78;1.90;;;21.30;64.50;;;;;;10623555;28;20171;-67
2022/01/15 15:11:16;;;;;;;2.97;2.20;;;21.20;64.40;;;;;;10571377;28;20552;-68
2022/01/15 15:16:34;;;;;;;3.72;2.30;;;21.30;64.50;;;;;;10606332;28;20082;-68
2022/01/15 15:21:43;;;;;;;4.40;2.53;;;21.30;64.60;;;;;;10630086;27;20051;-68
2022/01/15 15:32:54;;;;;;;10.25;2.75;;;21.30;64.50;;;;;;10631653;27;20479;-67
2022/01/15 15:38:18;;;;;;;8.88;2.70;;;21.20;64.50;;;;;;10632092;27;20039;-68
2022/01/15 15:43:29;;;;;;;5.20;2.30;;;21.20;64.50;;;;;;10631559;27;20132;-67
2022/01/15 15:48:40;;;;;;;5.25;2.50;;;21.20;64.50;;;;;;10621788;27;20092;-66
2022/01/15 15:53:53;;;;;;;4.82;2.50;;;21.20;64.50;;;;;;10588439;28;20051;-66
2022/01/15 15:59:14;;;;;;;4.20;2.35;;;21.20;64.50;;;;;;10556067;28;20097;-66
2022/01/15 16:04:26;;;;;;;8.80;2.95;;;21.20;64.50;;;;;;10553731;28;20117;-67
2022/01/15 16:09:52;;;;;;;6.20;2.95;;;21.20;64.50;;;;;;10573364;28;20476;-66
2022/01/15 16:15:01;;;;;;;5.45;3.05;;;21.20;64.50;;;;;;10588107;28;20036;-67
2022/01/15 16:20:07;;;;;;;6.43;3.90;;;21.10;64.50;;;;;;10587368;28;20569;-67
2022/01/15 16:25:16;;;;;;;6.55;3.05;;;21.10;64.50;;;;;;10597499;27;20085;-67
2022/01/15 16:30:21;;;;;;;10.48;2.90;;;21.10;64.60;;;;;;10623706;27;20059;-67
2022/01/15 16:35:28;;;;;;;7.90;3.20;;;21.00;64.70;;;;;;10651021;27;20051;-66
2022/01/15 16:40:33;;;;;;;13.32;3.55;;;21.00;64.90;;;;;;10672229;27;20050;-66
2022/01/15 16:45:44;;;;;;;20.15;3.65;;;21.00;64.90;;;;;;10672344;27;20123;-67
2022/01/15 16:50:52;;;;;;;5.70;3.13;;;20.90;64.90;;;;;;10687456;27;20046;-66
2022/01/15 16:56:02;;;;;;;10.32;3.53;;;20.90;65.00;;;;;;10672487;27;20440;-66
2022/01/15 17:01:10;;;;;;;12.27;3.35;;;20.90;65.00;;;;;;10636572;27;20060;-66
2022/01/15 17:06:18;;;;;;;5.95;3.03;;;20.80;64.90;;;;;;10673190;27;20042;-66
2022/01/15 17:11:23;;;;;;;10.98;3.03;;;20.80;64.90;;;;;;10652684;27;20466;-67
2022/01/15 17:16:29;;;;;;;6.45;3.20;;;20.70;64.90;;;;;;10671519;27;20079;-66
2022/01/15 17:21:34;;;;;;;6.80;3.15;;;20.70;65.00;;;;;;10670359;27;20047;-66
2022/01/15 17:26:42;;;;;;;9.10;3.05;;;20.70;64.90;;;;;;10670072;27;20426;-66
2022/01/15 17:31:47;;;;;;;4.82;2.65;;;20.60;65.10;;;;;;10651970;27;20043;-67
2022/01/15 17:36:53;;;;;;;5.18;2.55;;;20.50;65.10;;;;;;10669819;27;20043;-68
2022/01/15 17:41:58;;;;;;;7.72;2.80;;;20.50;65.10;;;;;;10670106;27;20043;-67
2022/01/15 17:47:03;;;;;;;6.75;2.50;;;20.50;65.20;;;;;;10669677;27;20039;-66
2022/01/15 17:52:11;;;;;;;7.03;2.50;;;20.50;65.30;;;;;;10671189;27;20064;-66
2022/01/15 17:57:17;;;;;;;5.13;3.40;;;20.60;65.40;;;;;;10669630;27;20059;-66
2022/01/15 18:02:22;;;;;;;8.57;4.97;;;20.60;65.30;;;;;;10668150;27;20395;-68
2022/01/15 18:07:27;;;;;;;7.25;4.40;;;20.70;65.50;;;;;;10668943;27;20045;-67
2022/01/15 18:12:33;;;;;;;7.90;4.93;;;20.80;65.40;;;;;;10668060;27;20053;-66
2022/01/15 18:17:38;;;;;;;10.80;5.13;;;20.90;65.30;;;;;;10667884;27;20050;-66
2022/01/15 18:22:42;;;;;;;7.80;4.25;;;21.00;65.20;;;;;;10668275;27;20050;-66
2022/01/15 18:27:47;;;;;;;9.98;4.63;;;21.10;65.20;;;;;;10668625;27;20104;-67
2022/01/15 18:32:54;;;;;;;8.15;4.57;;;21.10;65.10;;;;;;10667423;27;20554;-66
2022/01/15 18:38:02;;;;;;;18.70;4.73;;;21.20;65.00;;;;;;10664955;27;20064;-67
2022/01/15 18:43:11;;;;;;;33.60;18.30;;;21.30;65.00;;;;;;10647333;27;20035;-54
2022/01/15 18:48:31;;;;;;;36.10;19.40;;;20.00;50.20;;;;;;10589826;27;20040;-67
2022/01/15 18:53:58;;;;;;;28.73;13.57;;;19.00;53.50;;;;;;10623769;27;20092;-67
2022/01/15 18:59:18;;;;;;;21.15;10.27;;;19.60;58.30;;;;;;10589109;28;20108;-68
2022/01/15 19:04:45;;;;;;;16.85;7.47;;;20.10;58.20;;;;;;10624230;28;20100;-68
2022/01/15 19:10:14;;;;;;;11.48;6.18;;;20.40;58.30;;;;;;10606252;28;20425;-67
2022/01/15 19:15:30;;;;;;;8.45;4.85;;;20.60;58.50;;;;;;10623878;28;20046;-67
2022/01/15 19:20:50;;;;;;;8.35;4.15;;;20.60;58.80;;;;;;10623059;28;20069;-67
2022/01/15 19:26:36;;;;;;;8.30;4.05;;;20.70;59.10;;;;;;10574105;28;20073;-67
2022/01/15 19:32:44;;;;;;;5.85;3.35;;;20.70;59.40;;;;;;10606501;28;20051;-68
2022/01/15 19:45:11;;;;;;;7.35;4.80;;;20.90;59.70;;;;;;10431488;28;20481;-67
2022/01/15 19:51:38;;;;;;;10.30;3.92;;;20.90;59.80;;;;;;10515092;28;20055;-67
2022/01/15 19:56:48;;;;;;;12.50;5.30;;;21.00;60.00;;;;;;10504884;28;20044;-66
2022/01/15 20:01:54;;;;;;;8.40;5.18;;;21.00;60.10;;;;;;10521280;28;20074;-68
2022/01/15 20:07:39;;;;;;;9.95;5.43;;;21.00;60.20;;;;;;10539411;28;20052;-66
2022/01/15 20:12:56;;;;;;;8.00;5.40;;;21.00;60.30;;;;;;10510816;28;20447;-68
2022/01/15 20:18:26;;;;;;;10.65;5.07;;;21.00;60.50;;;;;;10511580;28;20374;-68
2022/01/15 20:23:46;;;;;;;7.95;4.70;;;21.00;60.70;;;;;;10532548;28;20083;-67
2022/01/15 20:29:58;;;;;;;8.35;5.72;;;21.00;60.80;;;;;;10567017;28;20055;-66
2022/01/15 20:42:38;;;;;;;10.48;4.82;;;20.90;60.90;;;;;;10554954;28;20484;-67
2022/01/15 20:49:00;;;;;;;6.90;4.55;;;20.90;61.00;;;;;;10518849;28;20100;-69
2022/01/15 20:55:08;;;;;;;;;;;;;;;;;;;;;
2022/01/15 21:01:27;;;;;;;6.03;4.00;;;20.90;61.20;;;;;;10351370;28;20058;-69
2022/01/15 21:07:26;;;;;;;8.57;4.63;;;20.90;61.30;;;;;;10257059;28;20059;-67
2022/01/15 21:13:38;;;;;;;7.93;4.78;;;20.80;61.30;;;;;;10251498;29;20055;-67
2022/01/15 21:19:42;;;;;;;7.40;4.70;;;20.80;61.40;;;;;;10346829;28;20046;-69
2022/01/15 21:24:52;;;;;;;7.13;4.60;;;20.80;61.50;;;;;;10426840;28;20456;-65
2022/01/15 21:31:08;;;;;;;;;;;;;;;;;;;;;
2022/01/15 21:44:06;;;;;;;10.25;4.80;;;20.70;61.70;;;;;;10616561;27;20063;-68
2022/01/15 21:49:30;;;;;;;7.60;4.53;;;20.70;61.70;;;;;;10608672;27;20634;-68
2022/01/15 21:54:36;;;;;;;7.00;4.53;;;20.70;61.90;;;;;;10626084;27;20092;-65
2022/01/15 21:59:46;;;;;;;9.03;5.23;;;20.70;62.00;;;;;;10625658;27;20055;-68
2022/01/15 22:05:25;;;;;;;6.28;4.72;;;20.70;62.10;;;;;;10611906;27;20043;-66
2022/01/15 22:10:58;;;;;;;9.77;4.55;;;20.70;62.30;;;;;;10625148;27;20051;-65
2022/01/15 22:16:07;;;;;;;7.28;4.22;;;20.70;62.30;;;;;;10607362;27;20404;-67
2022/01/15 22:21:36;;;;;;;7.43;4.88;;;20.70;62.40;;;;;;10608979;27;20039;-68
2022/01/15 22:26:48;;;;;;;5.43;4.03;;;20.60;62.40;;;;;;10604893;27;20072;-67
2022/01/15 22:32:09;;;;;;;8.48;4.30;;;20.60;62.50;;;;;;10607433;27;20039;-68
2022/01/15 22:37:41;;;;;;;7.35;4.45;;;20.60;62.50;;;;;;10604488;27;20044;-66
2022/01/15 22:42:57;;;;;;;7.85;4.20;;;20.50;62.50;;;;;;10565747;28;20114;-67
2022/01/15 22:48:18;;;;;;;7.88;4.90;;;20.50;62.60;;;;;;10531392;27;20051;-67
2022/01/15 22:53:26;;;;;;;11.73;5.05;;;20.50;62.70;;;;;;10567748;27;20050;-66
2022/01/15 22:58:32;;;;;;;9.82;4.80;;;20.40;62.80;;;;;;10620807;27;20099;-66
2022/01/15 23:03:57;;;;;;;7.95;5.00;;;20.40;62.80;;;;;;10601364;27;20440;-68
2022/01/15 23:09:07;;;;;;;9.70;5.13;;;20.40;62.90;;;;;;10604442;28;20047;-68
2022/01/15 23:14:25;;;;;;;8.25;5.10;;;20.30;63.00;;;;;;10581052;28;20043;-67
2022/01/15 23:19:38;;;;;;;8.50;5.27;;;20.30;63.10;;;;;;10580884;28;20044;-67
2022/01/15 23:44:55;;;;;;;8.20;4.90;;;20.30;63.30;;;;;;10367445;28;20109;-68
2022/01/15 23:58:07;;;;;;;9.05;4.53;;;20.20;63.30;;;;;;10322038;28;20050;-67
